Bloom, North Dakota
Current Conditions -  °F | °C
As of 5:56 PM on Monday 24 Nov 2014 (Local Time) from KJMS Reporting Station
Clear Clear  
Wind Chill:   Ceiling: Unl
Heat Index: 15°   Visibility: 10mi
Dew Point:   Wind: 10mph
Humidity: 51%   Direction: 320°NW
Pressure: 29.96"   Gusts: NA
Location:  46.8494°N, 98.7424°W
Report Text: KJMS 242356Z AUTO 32009KT 10SM CLR M09/M18 A2996 RMK AO2 SLP177 T10941178 11061 21094 51028
Loading
Personal Weather Stations






























Interactive Weather Map New forecast layout! Learn more

10-Day Weather Forecast

Advertisements
Track Severe Weather on mobile